createdAt,value
2019-04-30T00:01:01.924Z,12.93
2019-04-30T00:03:50.490Z,9.80
2019-04-30T00:06:27.319Z,15.87
2019-04-30T00:08:55.440Z,11.63
2019-04-30T00:11:27.328Z,9.90
2019-04-30T00:13:58.953Z,12.57
2019-04-30T00:16:31.120Z,8.60
2019-04-30T00:19:01.418Z,11.17
2019-04-30T00:21:31.769Z,9.73
2019-04-30T00:24:10.269Z,11.53
2019-04-30T00:26:39.826Z,8.53
2019-04-30T00:29:19.203Z,9.60
2019-04-30T00:31:47.066Z,10.50
2019-04-30T00:34:18.297Z,11.83
2019-04-30T00:36:48.600Z,9.40
2019-04-30T00:39:18.953Z,9.27
2019-04-30T00:41:49.499Z,11.03
2019-04-30T00:44:23.846Z,9.30
2019-04-30T00:46:52.893Z,14.40
2019-04-30T00:49:26.619Z,11.90
2019-04-30T00:51:58.112Z,10.70
2019-04-30T00:54:30.853Z,16.57
2019-04-30T00:57:05.517Z,15.57
2019-04-30T00:59:35.043Z,16.10
2019-04-30T01:02:19.999Z,16.20
2019-04-30T01:04:52.520Z,10.50
2019-04-30T01:07:23.193Z,10.73
2019-04-30T01:09:55.227Z,12.33
2019-04-30T01:12:29.681Z,9.43
2019-04-30T01:17:38.260Z,18.63
2019-04-30T01:20:09.722Z,16.53
2019-04-30T01:22:41.432Z,11.80
2019-04-30T01:25:13.598Z,21.23
2019-04-30T01:27:49.114Z,16.63
2019-04-30T01:30:22.770Z,7.53
2019-04-30T01:32:56.878Z,13.30
2019-04-30T01:35:28.285Z,13.73
2019-04-30T01:37:56.902Z,14.00
2019-04-30T01:40:31.072Z,9.97
2019-04-30T01:43:01.842Z,13.00
2019-04-30T01:45:32.176Z,12.50
2019-04-30T01:48:08.951Z,13.23
2019-04-30T01:50:42.245Z,12.80
2019-04-30T01:53:13.376Z,17.30
2019-04-30T01:56:01.755Z,15.93
2019-04-30T01:58:43.072Z,8.03
2019-04-30T02:01:18.999Z,8.83
2019-04-30T02:03:49.392Z,9.57
2019-04-30T02:06:19.856Z,12.57
2019-04-30T02:08:50.188Z,7.20
2019-04-30T02:11:20.865Z,9.20
2019-04-30T02:13:51.238Z,12.87
2019-04-30T02:16:21.969Z,12.10
2019-04-30T02:18:52.710Z,9.17
2019-04-30T02:21:23.054Z,11.07
2019-04-30T02:23:53.466Z,8.53
2019-04-30T02:26:23.809Z,8.57
2019-04-30T02:28:54.159Z,8.97
2019-04-30T02:31:26.891Z,7.33
2019-04-30T02:34:05.093Z,7.17
2019-04-30T02:36:42.780Z,9.37
2019-04-30T02:39:13.113Z,9.67
2019-04-30T02:41:45.516Z,10.37
2019-04-30T02:44:19.556Z,9.47
2019-04-30T02:46:52.173Z,10.80
2019-04-30T02:49:24.383Z,7.37
2019-04-30T02:51:59.410Z,6.60
2019-04-30T02:54:30.995Z,10.17
2019-04-30T02:57:13.190Z,10.03
2019-04-30T03:00:01.672Z,7.33
2019-04-30T03:02:39.170Z,9.03
2019-04-30T03:05:12.894Z,10.17
2019-04-30T03:07:42.753Z,6.03
2019-04-30T03:10:15.193Z,16.93
2019-04-30T03:12:46.409Z,6.30
2019-04-30T03:15:19.502Z,6.17
2019-04-30T03:18:09.920Z,12.30
2019-04-30T03:20:51.310Z,7.33
2019-04-30T03:23:21.702Z,12.57
2019-04-30T03:25:52.198Z,11.23
2019-04-30T03:28:22.472Z,6.37
2019-04-30T03:30:57.846Z,9.93
2019-04-30T03:33:27.085Z,7.50
2019-04-30T03:36:01.857Z,8.17
2019-04-30T03:38:30.099Z,14.53
2019-04-30T03:41:00.653Z,10.90
2019-04-30T03:43:31.036Z,8.70
2019-04-30T03:46:02.690Z,10.83
2019-04-30T03:48:34.418Z,8.90
2019-04-30T03:51:05.067Z,16.17
2019-04-30T03:53:35.680Z,8.40
2019-04-30T03:56:05.985Z,12.67
2019-04-30T03:58:43.222Z,9.50
2019-04-30T04:01:30.657Z,14.57
2019-04-30T04:04:26.076Z,9.90
2019-04-30T04:07:05.557Z,7.43
2019-04-30T04:09:41.697Z,14.83
2019-04-30T04:12:21.213Z,10.20
2019-04-30T04:14:51.605Z,8.90
2019-04-30T04:17:26.539Z,12.57
2019-04-30T04:19:59.585Z,13.37
2019-04-30T04:22:36.489Z,9.13
2019-04-30T04:25:10.102Z,7.30
2019-04-30T04:27:41.841Z,13.60
2019-04-30T04:30:12.290Z,10.53
2019-04-30T04:32:43.129Z,7.53
2019-04-30T04:35:13.435Z,9.23
2019-04-30T04:37:43.736Z,13.47
2019-04-30T04:40:14.494Z,11.07
2019-04-30T04:42:45.291Z,10.13
2019-04-30T04:45:15.615Z,10.13
2019-04-30T04:47:50.534Z,8.63
2019-04-30T04:50:21.498Z,13.30
2019-04-30T04:52:51.801Z,7.03
2019-04-30T04:55:23.506Z,6.00
2019-04-30T04:57:55.673Z,12.20
2019-04-30T05:00:26.479Z,11.63
2019-04-30T05:03:19.993Z,17.70
2019-04-30T05:05:59.986Z,8.03
2019-04-30T05:08:31.180Z,7.80
2019-04-30T05:11:01.851Z,8.58
2019-04-30T05:13:34.688Z,10.57
2019-04-30T05:16:04.856Z,6.90
2019-04-30T05:18:35.505Z,6.47
2019-04-30T05:21:06.343Z,28.10
2019-04-30T05:23:36.771Z,11.22
2019-04-30T05:26:11.029Z,12.00
2019-04-30T05:28:42.023Z,6.90
2019-04-30T05:31:12.573Z,9.55
2019-04-30T05:33:43.643Z,12.20
2019-04-30T05:36:14.010Z,5.72
2019-04-30T05:38:44.321Z,11.35
2019-04-30T05:41:14.589Z,11.95
2019-04-30T05:43:44.949Z,12.63
2019-04-30T05:46:15.515Z,9.85
2019-04-30T05:48:49.494Z,5.70
2019-04-30T05:51:21.284Z,7.97
2019-04-30T05:53:52.302Z,5.70
2019-04-30T05:56:22.860Z,8.98
2019-04-30T05:58:53.946Z,6.25
2019-04-30T06:01:29.359Z,7.85
2019-04-30T06:03:59.570Z,5.05
2019-04-30T06:06:29.967Z,16.32
2019-04-30T06:09:14.460Z,12.05
2019-04-30T06:12:13.711Z,7.87
2019-04-30T06:14:49.910Z,8.55
2019-04-30T06:17:20.698Z,6.75
2019-04-30T06:19:51.459Z,7.05
2019-04-30T06:22:23.306Z,6.12
2019-04-30T06:24:53.645Z,7.30
2019-04-30T06:27:26.135Z,4.00
2019-04-30T06:29:59.896Z,8.53
2019-04-30T06:32:35.392Z,6.62
2019-04-30T06:35:05.586Z,4.70
2019-04-30T06:37:36.272Z,10.08
2019-04-30T06:40:09.440Z,7.35
2019-04-30T06:42:41.112Z,3.37
2019-04-30T06:45:11.822Z,5.25
2019-04-30T06:47:46.174Z,4.10
2019-04-30T06:50:19.358Z,3.72
2019-04-30T06:52:56.806Z,4.08
2019-04-30T06:55:26.076Z,7.30
2019-04-30T06:58:11.490Z,8.53
2019-04-30T07:00:39.625Z,6.00
2019-04-30T07:03:12.009Z,9.25
2019-04-30T07:05:42.355Z,6.42
2019-04-30T07:08:39.499Z,2.75
2019-04-30T07:11:21.734Z,10.20
2019-04-30T07:13:52.726Z,4.87
2019-04-30T07:16:23.507Z,4.10
2019-04-30T07:18:53.850Z,8.35
2019-04-30T07:21:24.163Z,4.10
2019-04-30T07:23:54.495Z,5.72
2019-04-30T07:26:25.561Z,8.28
2019-04-30T07:28:59.802Z,6.75
2019-04-30T07:31:30.153Z,6.00
2019-04-30T07:34:00.441Z,4.70
2019-04-30T07:36:45.178Z,16.07
2019-04-30T07:39:09.825Z,7.00
2019-04-30T07:41:40.713Z,9.35
2019-04-30T07:44:29.424Z,6.45
2019-04-30T07:46:45.198Z,5.83
2019-04-30T07:49:15.231Z,7.85
2019-04-30T07:51:51.167Z,10.23
2019-04-30T07:54:20.410Z,11.08
2019-04-30T07:56:53.862Z,12.18
2019-04-30T07:59:26.050Z,7.08
2019-04-30T08:02:07.651Z,9.68
2019-04-30T08:05:04.415Z,8.03
2019-04-30T08:07:35.971Z,8.78
2019-04-30T08:10:08.767Z,9.30
2019-04-30T08:12:44.071Z,10.28
2019-04-30T08:15:16.005Z,5.75
2019-04-30T08:17:46.327Z,5.12
2019-04-30T08:20:19.667Z,8.00
2019-04-30T08:22:50.486Z,6.33
2019-04-30T08:25:22.008Z,7.08
2019-04-30T08:27:52.845Z,11.83
2019-04-30T08:30:26.634Z,8.75
2019-04-30T08:32:59.560Z,7.10
2019-04-30T08:35:31.383Z,9.20
2019-04-30T08:38:10.749Z,9.98
2019-04-30T08:40:53.249Z,6.00
2019-04-30T08:43:15.972Z,9.08
2019-04-30T08:45:46.354Z,9.15
2019-04-30T08:48:18.848Z,10.05
2019-04-30T08:50:51.398Z,5.83
2019-04-30T08:53:29.295Z,9.58
2019-04-30T08:55:59.878Z,6.85
2019-04-30T08:58:54.793Z,16.90
2019-04-30T09:01:34.520Z,7.58
2019-04-30T09:04:07.587Z,6.28
2019-04-30T09:06:38.926Z,12.05
2019-04-30T09:09:14.822Z,7.60
2019-04-30T09:11:52.906Z,8.93
2019-04-30T09:14:18.706Z,12.58
2019-04-30T09:16:51.299Z,12.37
2019-04-30T09:19:21.842Z,5.70
2019-04-30T09:21:52.134Z,8.25
2019-04-30T09:24:30.701Z,8.98
2019-04-30T09:26:59.320Z,11.80
2019-04-30T09:29:30.809Z,8.40
2019-04-30T09:32:01.472Z,12.23
2019-04-30T09:34:31.997Z,7.03
2019-04-30T09:37:02.432Z,11.15
2019-04-30T09:39:32.754Z,10.35
2019-04-30T09:42:03.108Z,10.90
2019-04-30T09:44:33.437Z,9.68
2019-04-30T09:47:03.726Z,12.58
2019-04-30T09:49:36.365Z,9.03
2019-04-30T09:52:09.350Z,16.15
2019-04-30T09:54:44.926Z,6.05
2019-04-30T09:57:15.403Z,8.18
2019-04-30T09:59:49.751Z,7.85
2019-04-30T10:02:20.226Z,12.80
2019-04-30T10:04:50.863Z,7.00
2019-04-30T10:07:21.924Z,11.08
2019-04-30T10:09:52.344Z,12.80
2019-04-30T10:12:24.680Z,7.42
2019-04-30T10:14:55.328Z,11.38
2019-04-30T10:17:39.351Z,10.40
2019-04-30T10:20:12.337Z,13.90
2019-04-30T10:22:42.647Z,8.50
2019-04-30T10:25:13.404Z,12.07
2019-04-30T10:27:45.325Z,11.05
2019-04-30T10:30:19.245Z,7.40
2019-04-30T10:32:50.074Z,10.60
2019-04-30T10:35:24.056Z,7.47
2019-04-30T10:37:54.843Z,10.38
2019-04-30T10:40:25.192Z,13.83
2019-04-30T10:42:55.982Z,8.15
2019-04-30T10:45:28.809Z,9.58
2019-04-30T10:47:59.333Z,12.13
2019-04-30T10:50:40.909Z,10.75
2019-04-30T10:53:12.475Z,6.37
2019-04-30T10:55:42.923Z,10.32
2019-04-30T10:58:15.394Z,10.95
2019-04-30T11:00:46.014Z,18.80
2019-04-30T11:03:20.766Z,34.88
2019-04-30T11:05:50.053Z,24.07
2019-04-30T11:08:20.709Z,19.65
2019-04-30T11:10:51.295Z,13.62
2019-04-30T11:13:21.627Z,20.12
2019-04-30T11:15:52.526Z,15.80
2019-04-30T11:18:23.091Z,16.65
2019-04-30T11:20:55.235Z,21.07
2019-04-30T11:23:26.188Z,19.27
2019-04-30T11:25:57.079Z,23.83
2019-04-30T11:28:28.197Z,20.75
2019-04-30T11:31:18.255Z,21.23
2019-04-30T11:33:49.096Z,24.65
2019-04-30T11:36:20.271Z,16.77
2019-04-30T11:38:50.610Z,22.98
2019-04-30T11:41:30.001Z,14.75
2019-04-30T11:43:54.414Z,17.32
2019-04-30T11:47:09.903Z,21.30
2019-04-30T11:49:40.245Z,14.73
2019-04-30T11:52:12.671Z,13.15
2019-04-30T11:54:51.647Z,27.17
2019-04-30T11:57:18.609Z,17.02
2019-04-30T11:59:48.728Z,17.12
2019-04-30T12:02:29.247Z,18.42
2019-04-30T12:04:59.387Z,24.25
2019-04-30T12:07:48.315Z,14.98
2019-04-30T12:10:44.377Z,13.80
2019-04-30T12:13:25.139Z,9.75
2019-04-30T12:16:01.734Z,12.85
2019-04-30T12:18:32.083Z,21.17
2019-04-30T12:21:02.463Z,15.55
2019-04-30T12:23:32.977Z,14.03
2019-04-30T12:26:03.314Z,14.93
2019-04-30T12:28:35.962Z,10.35
2019-04-30T12:31:13.577Z,11.68
2019-04-30T12:33:44.052Z,21.45
2019-04-30T12:36:14.654Z,11.60
2019-04-30T12:38:45.142Z,16.23
2019-04-30T12:41:20.247Z,13.80
2019-04-30T12:43:50.746Z,10.55
2019-04-30T12:46:22.046Z,8.15
2019-04-30T12:49:11.303Z,10.80
2019-04-30T12:51:50.524Z,9.78
2019-04-30T12:54:32.548Z,7.87
2019-04-30T12:57:23.554Z,12.28
2019-04-30T12:59:53.846Z,11.03
2019-04-30T13:02:26.263Z,10.30
2019-04-30T13:05:00.258Z,9.35
2019-04-30T13:07:31.409Z,6.47
2019-04-30T13:10:03.398Z,11.65
2019-04-30T13:12:36.671Z,8.90
2019-04-30T13:15:09.275Z,47.60
2019-04-30T13:17:40.486Z,24.43
2019-04-30T13:20:18.550Z,20.37
2019-04-30T13:22:44.392Z,16.37
2019-04-30T13:25:29.538Z,54.40
2019-04-30T13:27:54.222Z,103.50
2019-04-30T13:30:26.391Z,85.65
2019-04-30T13:33:09.430Z,43.85
2019-04-30T13:35:42.417Z,34.85
2019-04-30T13:38:25.150Z,12.53
2019-04-30T13:41:08.855Z,25.57
2019-04-30T13:43:59.841Z,17.35
2019-04-30T13:46:30.265Z,19.85
2019-04-30T13:49:01.375Z,18.40
2019-04-30T13:51:31.700Z,13.68
2019-04-30T13:54:08.010Z,15.83
2019-04-30T13:56:39.682Z,24.00
2019-04-30T13:59:10.068Z,21.95
2019-04-30T14:01:40.338Z,20.80
2019-04-30T14:04:37.625Z,23.45
2019-04-30T14:07:47.271Z,22.48
2019-04-30T14:10:19.445Z,28.17
2019-04-30T14:12:56.639Z,9.65
2019-04-30T14:15:34.821Z,7.37
2019-04-30T14:18:05.143Z,7.67
2019-04-30T14:20:55.718Z,13.65
2019-04-30T14:23:26.077Z,10.75
2019-04-30T14:26:00.935Z,9.80
2019-04-30T14:28:31.093Z,35.50
2019-04-30T14:31:04.101Z,29.18
2019-04-30T14:33:34.457Z,15.63
2019-04-30T14:36:05.701Z,8.28
2019-04-30T14:38:36.306Z,9.95
2019-04-30T14:41:07.753Z,16.75
2019-04-30T14:43:45.639Z,15.18
2019-04-30T14:46:31.437Z,7.05
2019-04-30T14:49:22.338Z,12.10
2019-04-30T14:51:54.555Z,13.30
2019-04-30T14:54:50.492Z,14.07
2019-04-30T14:57:38.336Z,19.62
2019-04-30T15:00:32.078Z,15.90
2019-04-30T15:03:09.504Z,7.70
2019-04-30T15:05:48.516Z,8.28
2019-04-30T15:08:16.836Z,12.65
2019-04-30T15:10:47.402Z,11.80
2019-04-30T15:13:19.490Z,14.15
2019-04-30T15:15:50.710Z,10.13
2019-04-30T15:18:21.012Z,12.28
2019-04-30T15:20:51.328Z,9.28
2019-04-30T15:23:39.919Z,13.00
2019-04-30T15:26:22.226Z,12.70
2019-04-30T15:28:45.730Z,12.03
2019-04-30T15:31:22.156Z,12.13
2019-04-30T15:34:02.982Z,15.53
2019-04-30T15:36:33.188Z,20.68
2019-04-30T15:39:40.553Z,13.40
2019-04-30T15:42:14.741Z,12.15
2019-04-30T15:44:49.647Z,13.68
2019-04-30T15:47:21.264Z,15.35
2019-04-30T15:49:53.089Z,13.65
2019-04-30T15:52:23.381Z,11.03
2019-04-30T15:54:53.645Z,11.95
2019-04-30T15:57:24.021Z,19.15
2019-04-30T15:59:54.375Z,12.93
2019-04-30T16:02:34.995Z,13.78
2019-04-30T16:05:23.940Z,19.55
2019-04-30T16:08:25.777Z,13.98
2019-04-30T16:11:21.750Z,16.57
2019-04-30T16:14:11.095Z,13.48
2019-04-30T16:16:44.058Z,15.43
2019-04-30T16:19:14.355Z,15.72
2019-04-30T16:21:44.885Z,20.02
2019-04-30T16:24:15.540Z,19.05
2019-04-30T16:26:52.069Z,17.23
2019-04-30T16:29:20.475Z,17.67
2019-04-30T16:31:51.114Z,22.80
2019-04-30T16:34:21.493Z,21.48
2019-04-30T16:36:52.950Z,14.78
2019-04-30T16:39:23.433Z,16.67
2019-04-30T16:41:54.519Z,17.98
2019-04-30T16:44:25.349Z,20.32
2019-04-30T16:47:13.026Z,18.07
2019-04-30T16:49:34.153Z,17.35
2019-04-30T16:52:04.492Z,21.25
2019-04-30T16:54:36.628Z,18.02
2019-04-30T16:57:11.635Z,27.22
2019-04-30T16:59:42.625Z,19.05
2019-04-30T17:02:17.016Z,20.90
2019-04-30T17:04:59.438Z,21.95
2019-04-30T17:07:30.549Z,18.75
2019-04-30T17:10:29.392Z,18.67
2019-04-30T17:13:31.484Z,17.62
2019-04-30T17:16:14.481Z,16.73
2019-04-30T17:18:45.104Z,14.23
2019-04-30T17:21:15.438Z,19.12
2019-04-30T17:23:45.723Z,18.20
2019-04-30T17:26:16.124Z,17.65
2019-04-30T17:28:49.889Z,20.75
2019-04-30T17:31:20.487Z,19.12
2019-04-30T17:33:50.811Z,17.40
2019-04-30T17:36:22.425Z,17.35
2019-04-30T17:38:53.703Z,17.32
2019-04-30T17:41:24.300Z,18.48
2019-04-30T17:43:55.074Z,16.77
2019-04-30T17:46:28.515Z,17.27
2019-04-30T17:48:59.367Z,13.80
2019-04-30T17:51:29.935Z,19.98
2019-04-30T17:54:16.171Z,15.63
2019-04-30T17:56:46.562Z,18.80
2019-04-30T17:59:16.853Z,16.07
2019-04-30T18:01:53.232Z,21.50
2019-04-30T18:04:23.691Z,26.48
2019-04-30T18:06:54.007Z,19.20
2019-04-30T18:09:29.710Z,19.87
2019-04-30T18:12:04.643Z,20.75
2019-04-30T18:14:36.988Z,18.17
2019-04-30T18:17:09.293Z,20.48
2019-04-30T18:19:49.736Z,28.87
2019-04-30T18:22:39.993Z,22.15
2019-04-30T18:25:35.506Z,16.85
2019-04-30T18:28:05.859Z,18.12
2019-04-30T18:30:40.702Z,19.90
2019-04-30T18:33:11.463Z,16.65
2019-04-30T18:35:48.543Z,20.48
2019-04-30T18:38:20.963Z,19.37
2019-04-30T18:40:51.772Z,21.68
2019-04-30T18:43:22.518Z,17.82
2019-04-30T18:45:52.902Z,16.65
2019-04-30T18:48:26.523Z,19.62
2019-04-30T18:50:57.012Z,24.18
2019-04-30T18:53:31.423Z,21.00
2019-04-30T18:56:04.609Z,19.15
2019-04-30T18:58:39.991Z,29.32
2019-04-30T19:01:09.230Z,27.67
2019-04-30T19:03:45.093Z,33.63
2019-04-30T19:06:26.252Z,23.20
2019-04-30T19:09:03.009Z,25.40
2019-04-30T19:12:02.653Z,29.42
2019-04-30T19:14:51.135Z,19.12
2019-04-30T19:17:43.198Z,21.93
2019-04-30T19:20:20.327Z,23.77
2019-04-30T19:22:52.334Z,34.88
2019-04-30T19:25:22.899Z,28.83
2019-04-30T19:27:53.163Z,25.55
2019-04-30T19:30:26.434Z,20.05
2019-04-30T19:32:58.851Z,20.97
2019-04-30T19:35:29.610Z,22.97
2019-04-30T19:38:02.743Z,21.73
2019-04-30T19:40:39.193Z,24.00
2019-04-30T19:43:16.675Z,18.40
2019-04-30T19:45:49.024Z,18.77
2019-04-30T19:48:20.822Z,22.23
2019-04-30T19:50:51.240Z,19.00
2019-04-30T19:53:22.425Z,18.77
2019-04-30T19:55:55.666Z,18.33
2019-04-30T19:58:43.628Z,33.13
2019-04-30T20:00:59.499Z,27.53
2019-04-30T20:03:34.799Z,32.67
2019-04-30T20:06:05.250Z,25.80
2019-04-30T20:08:39.653Z,28.40
2019-04-30T20:11:10.066Z,21.87
2019-04-30T20:13:40.558Z,31.87
2019-04-30T20:16:14.071Z,26.77
2019-04-30T20:18:44.507Z,27.77
2019-04-30T20:21:26.282Z,33.30
2019-04-30T20:23:50.040Z,27.57
2019-04-30T20:26:24.402Z,25.13
2019-04-30T20:28:54.657Z,19.30
2019-04-30T20:31:24.979Z,29.77
2019-04-30T20:34:01.422Z,21.47
2019-04-30T20:36:31.471Z,29.20
2019-04-30T20:39:19.202Z,22.43
2019-04-30T20:41:53.755Z,26.37
2019-04-30T20:44:24.340Z,28.77
2019-04-30T20:46:54.708Z,30.90
2019-04-30T20:49:24.980Z,26.07
2019-04-30T20:51:58.852Z,36.80
2019-04-30T20:54:29.306Z,28.10
2019-04-30T20:56:59.720Z,32.53
2019-04-30T20:59:31.867Z,29.20
2019-04-30T21:02:02.233Z,27.53
2019-04-30T21:04:36.022Z,28.47
2019-04-30T21:07:06.899Z,28.07
2019-04-30T21:09:37.299Z,20.63
2019-04-30T21:12:08.978Z,20.30
2019-04-30T21:14:40.642Z,19.27
2019-04-30T21:17:13.050Z,22.47
2019-04-30T21:19:43.612Z,16.57
2019-04-30T21:22:15.900Z,19.00
2019-04-30T21:24:46.312Z,20.77
2019-04-30T21:27:18.463Z,21.77
2019-04-30T21:29:49.367Z,20.30
2019-04-30T21:32:38.760Z,23.50
2019-04-30T21:35:26.779Z,27.07
2019-04-30T21:37:59.024Z,32.73
2019-04-30T21:40:29.874Z,26.30
2019-04-30T21:43:00.217Z,30.67
2019-04-30T21:45:31.559Z,49.30
2019-04-30T21:48:04.401Z,28.30
2019-04-30T21:50:39.692Z,25.03
2019-04-30T21:53:10.322Z,24.63
2019-04-30T21:55:46.090Z,20.30
2019-04-30T21:58:20.495Z,17.93
2019-04-30T22:01:10.823Z,21.80
2019-04-30T22:03:41.860Z,15.17
2019-04-30T22:06:12.179Z,15.50
2019-04-30T22:08:43.295Z,15.27
2019-04-30T22:11:13.689Z,27.87
2019-04-30T22:13:44.009Z,22.53
2019-04-30T22:16:14.738Z,25.87
2019-04-30T22:18:47.832Z,26.07
2019-04-30T22:21:18.138Z,24.47
2019-04-30T22:23:48.459Z,23.83
2019-04-30T22:26:18.752Z,23.03
2019-04-30T22:28:50.526Z,18.93
2019-04-30T22:31:22.184Z,18.70
2019-04-30T22:33:54.129Z,22.97
2019-04-30T22:36:32.292Z,24.37
2019-04-30T22:39:30.699Z,25.20
2019-04-30T22:42:29.745Z,18.57
2019-04-30T22:45:01.536Z,17.27
2019-04-30T22:47:32.153Z,18.87
2019-04-30T22:50:02.425Z,22.43
2019-04-30T22:52:32.808Z,19.87
2019-04-30T22:55:03.113Z,21.73
2019-04-30T22:57:33.425Z,24.53
2019-04-30T23:00:04.587Z,22.47
2019-04-30T23:02:52.147Z,24.77
2019-04-30T23:05:24.236Z,23.80
2019-04-30T23:08:01.858Z,19.83
2019-04-30T23:10:32.311Z,18.20
2019-04-30T23:13:02.712Z,16.07
2019-04-30T23:15:33.662Z,14.33
2019-04-30T23:18:04.033Z,19.77
2019-04-30T23:20:34.420Z,18.27
2019-04-30T23:23:04.795Z,21.73
2019-04-30T23:25:35.436Z,16.93
2019-04-30T23:28:07.743Z,15.77
2019-04-30T23:30:40.966Z,20.60
2019-04-30T23:33:16.052Z,15.17
2019-04-30T23:35:48.432Z,20.23
2019-04-30T23:38:18.706Z,22.47
2019-04-30T23:40:52.792Z,23.70
2019-04-30T23:43:23.095Z,14.43
2019-04-30T23:45:53.376Z,19.33
2019-04-30T23:48:24.566Z,21.23
2019-04-30T23:50:57.522Z,16.00
2019-04-30T23:53:28.159Z,19.37
2019-04-30T23:55:58.709Z,18.70
2019-04-30T23:58:29.145Z,17.63
